sensor_id;sensor_type;location;lat;lon;timestamp;temperature;humidity
15095;DHT22;7648;52.264;9.632;2024-03-17T00:03:40;4.00;99.90
15095;DHT22;7648;52.264;9.632;2024-03-17T00:07:42;3.90;99.90
15095;DHT22;7648;52.264;9.632;2024-03-17T00:11:44;3.80;99.90
15095;DHT22;7648;52.264;9.632;2024-03-17T00:15:47;3.90;99.90
15095;DHT22;7648;52.264;9.632;2024-03-17T00:19:50;3.80;99.90
15095;DHT22;7648;52.264;9.632;2024-03-17T00:23:52;3.80;99.90
15095;DHT22;7648;52.264;9.632;2024-03-17T00:27:54;3.70;99.90
15095;DHT22;7648;52.264;9.632;2024-03-17T00:31:59;3.60;99.90
15095;DHT22;7648;52.264;9.632;2024-03-17T00:36:02;3.60;99.90
15095;DHT22;7648;52.264;9.632;2024-03-17T00:40:05;3.60;99.90
15095;DHT22;7648;52.264;9.632;2024-03-17T00:44:07;3.60;99.90
15095;DHT22;7648;52.264;9.632;2024-03-17T00:48:09;3.60;99.90
15095;DHT22;7648;52.264;9.632;2024-03-17T00:52:12;3.50;99.90
15095;DHT22;7648;52.264;9.632;2024-03-17T00:56:15;3.50;99.90
15095;DHT22;7648;52.264;9.632;2024-03-17T01:00:17;3.50;99.90
15095;DHT22;7648;52.264;9.632;2024-03-17T01:04:19;3.40;99.90
15095;DHT22;7648;52.264;9.632;2024-03-17T01:08:22;3.40;99.90
15095;DHT22;7648;52.264;9.632;2024-03-17T01:12:25;3.40;99.90
15095;DHT22;7648;52.264;9.632;2024-03-17T01:16:27;3.50;99.90
15095;DHT22;7648;52.264;9.632;2024-03-17T01:20:29;3.50;99.90
15095;DHT22;7648;52.264;9.632;2024-03-17T01:24:32;3.50;99.90
15095;DHT22;7648;52.264;9.632;2024-03-17T01:28:34;3.50;99.90
15095;DHT22;7648;52.264;9.632;2024-03-17T01:32:36;3.50;99.90
15095;DHT22;7648;52.264;9.632;2024-03-17T01:36:38;3.50;99.90
15095;DHT22;7648;52.264;9.632;2024-03-17T01:40:42;3.50;99.90
15095;DHT22;7648;52.264;9.632;2024-03-17T01:44:44;3.40;99.90
15095;DHT22;7648;52.264;9.632;2024-03-17T01:48:45;3.40;99.90
15095;DHT22;7648;52.264;9.632;2024-03-17T01:52:48;3.30;99.90
15095;DHT22;7648;52.264;9.632;2024-03-17T01:56:51;3.20;99.90
15095;DHT22;7648;52.264;9.632;2024-03-17T02:00:53;3.10;99.90
15095;DHT22;7648;52.264;9.632;2024-03-17T02:04:55;3.00;99.90
15095;DHT22;7648;52.264;9.632;2024-03-17T02:08:57;3.00;99.90
15095;DHT22;7648;52.264;9.632;2024-03-17T02:13:01;2.90;99.90
15095;DHT22;7648;52.264;9.632;2024-03-17T02:17:04;2.90;99.90
15095;DHT22;7648;52.264;9.632;2024-03-17T02:21:06;2.90;99.90
15095;DHT22;7648;52.264;9.632;2024-03-17T02:25:11;2.90;99.90
15095;DHT22;7648;52.264;9.632;2024-03-17T02:29:13;2.90;99.90
15095;DHT22;7648;52.264;9.632;2024-03-17T02:33:15;2.80;99.90
15095;DHT22;7648;52.264;9.632;2024-03-17T02:37:16;2.80;99.90
15095;DHT22;7648;52.264;9.632;2024-03-17T02:41:19;2.80;99.90
15095;DHT22;7648;52.264;9.632;2024-03-17T02:45:21;2.80;99.90
15095;DHT22;7648;52.264;9.632;2024-03-17T02:49:23;2.80;99.90
15095;DHT22;7648;52.264;9.632;2024-03-17T02:53:25;2.70;99.90
15095;DHT22;7648;52.264;9.632;2024-03-17T02:57:29;2.60;99.90
15095;DHT22;7648;52.264;9.632;2024-03-17T03:01:32;2.60;99.90
15095;DHT22;7648;52.264;9.632;2024-03-17T03:05:35;2.60;99.90
15095;DHT22;7648;52.264;9.632;2024-03-17T03:09:37;2.50;99.90
15095;DHT22;7648;52.264;9.632;2024-03-17T03:13:41;2.60;99.90
15095;DHT22;7648;52.264;9.632;2024-03-17T03:17:43;2.60;99.90
15095;DHT22;7648;52.264;9.632;2024-03-17T03:21:46;2.50;99.90
15095;DHT22;7648;52.264;9.632;2024-03-17T03:25:54;2.40;99.90
15095;DHT22;7648;52.264;9.632;2024-03-17T03:29:58;2.50;99.90
15095;DHT22;7648;52.264;9.632;2024-03-17T03:34:00;2.40;99.90
15095;DHT22;7648;52.264;9.632;2024-03-17T03:38:03;2.40;99.90
15095;DHT22;7648;52.264;9.632;2024-03-17T03:42:05;2.30;99.90
15095;DHT22;7648;52.264;9.632;2024-03-17T03:46:09;2.30;99.90
15095;DHT22;7648;52.264;9.632;2024-03-17T03:50:11;2.20;99.90
15095;DHT22;7648;52.264;9.632;2024-03-17T03:54:14;2.20;99.90
15095;DHT22;7648;52.264;9.632;2024-03-17T03:58:16;2.30;99.90
15095;DHT22;7648;52.264;9.632;2024-03-17T04:02:19;2.20;99.90
15095;DHT22;7648;52.264;9.632;2024-03-17T04:06:21;2.20;99.90
15095;DHT22;7648;52.264;9.632;2024-03-17T04:10:23;2.20;99.90
15095;DHT22;7648;52.264;9.632;2024-03-17T04:14:26;2.30;99.90
15095;DHT22;7648;52.264;9.632;2024-03-17T04:18:29;2.50;99.90
15095;DHT22;7648;52.264;9.632;2024-03-17T04:22:31;2.60;99.90
15095;DHT22;7648;52.264;9.632;2024-03-17T04:26:33;2.70;99.90
15095;DHT22;7648;52.264;9.632;2024-03-17T04:30:35;2.70;99.90
15095;DHT22;7648;52.264;9.632;2024-03-17T04:34:39;2.80;99.90
15095;DHT22;7648;52.264;9.632;2024-03-17T04:38:40;2.80;99.90
15095;DHT22;7648;52.264;9.632;2024-03-17T04:42:42;2.90;99.90
15095;DHT22;7648;52.264;9.632;2024-03-17T04:46:44;2.90;99.90
15095;DHT22;7648;52.264;9.632;2024-03-17T04:50:48;2.90;99.90
15095;DHT22;7648;52.264;9.632;2024-03-17T04:54:50;3.00;99.90
15095;DHT22;7648;52.264;9.632;2024-03-17T04:58:51;3.10;99.90
15095;DHT22;7648;52.264;9.632;2024-03-17T05:02:53;3.10;99.90
15095;DHT22;7648;52.264;9.632;2024-03-17T05:06:57;3.10;99.90
15095;DHT22;7648;52.264;9.632;2024-03-17T05:10:59;3.10;99.90
15095;DHT22;7648;52.264;9.632;2024-03-17T05:15:01;3.00;99.90
15095;DHT22;7648;52.264;9.632;2024-03-17T05:19:05;3.00;99.90
15095;DHT22;7648;52.264;9.632;2024-03-17T05:23:09;2.90;99.90
15095;DHT22;7648;52.264;9.632;2024-03-17T05:27:11;2.80;99.90
15095;DHT22;7648;52.264;9.632;2024-03-17T05:31:13;2.80;99.90
15095;DHT22;7648;52.264;9.632;2024-03-17T05:35:18;2.80;99.90
15095;DHT22;7648;52.264;9.632;2024-03-17T05:39:21;2.90;99.90
15095;DHT22;7648;52.264;9.632;2024-03-17T05:43:24;3.00;99.90
15095;DHT22;7648;52.264;9.632;2024-03-17T05:47:26;2.90;99.90
15095;DHT22;7648;52.264;9.632;2024-03-17T05:51:28;2.90;99.90
15095;DHT22;7648;52.264;9.632;2024-03-17T05:55:31;2.90;99.90
15095;DHT22;7648;52.264;9.632;2024-03-17T05:59:33;3.00;99.90
15095;DHT22;7648;52.264;9.632;2024-03-17T06:03:35;3.00;99.90
15095;DHT22;7648;52.264;9.632;2024-03-17T06:07:37;3.10;99.90
15095;DHT22;7648;52.264;9.632;2024-03-17T06:11:40;3.10;99.90
15095;DHT22;7648;52.264;9.632;2024-03-17T06:15:42;3.20;99.90
15095;DHT22;7648;52.264;9.632;2024-03-17T06:19:45;3.20;99.90
15095;DHT22;7648;52.264;9.632;2024-03-17T06:23:47;3.30;99.90
15095;DHT22;7648;52.264;9.632;2024-03-17T06:27:50;3.40;99.90
15095;DHT22;7648;52.264;9.632;2024-03-17T06:31:52;3.50;99.90
15095;DHT22;7648;52.264;9.632;2024-03-17T06:35:54;3.60;99.90
15095;DHT22;7648;52.264;9.632;2024-03-17T06:39:57;3.70;99.90
15095;DHT22;7648;52.264;9.632;2024-03-17T06:44:00;3.80;99.90
15095;DHT22;7648;52.264;9.632;2024-03-17T06:48:02;4.00;99.90
15095;DHT22;7648;52.264;9.632;2024-03-17T06:52:05;4.10;99.90
15095;DHT22;7648;52.264;9.632;2024-03-17T06:56:07;4.10;99.90
15095;DHT22;7648;52.264;9.632;2024-03-17T07:00:12;4.10;99.90
15095;DHT22;7648;52.264;9.632;2024-03-17T07:04:15;4.10;99.90
15095;DHT22;7648;52.264;9.632;2024-03-17T07:08:17;4.20;99.90
15095;DHT22;7648;52.264;9.632;2024-03-17T07:12:19;4.30;99.90
15095;DHT22;7648;52.264;9.632;2024-03-17T07:16:23;4.30;99.90
15095;DHT22;7648;52.264;9.632;2024-03-17T07:20:26;4.40;99.90
15095;DHT22;7648;52.264;9.632;2024-03-17T07:24:28;4.40;99.90
15095;DHT22;7648;52.264;9.632;2024-03-17T07:28:31;4.40;99.90
15095;DHT22;7648;52.264;9.632;2024-03-17T07:32:34;4.40;99.90
15095;DHT22;7648;52.264;9.632;2024-03-17T07:36:36;4.50;99.90
15095;DHT22;7648;52.264;9.632;2024-03-17T07:40:38;4.70;99.90
15095;DHT22;7648;52.264;9.632;2024-03-17T07:44:43;4.90;99.90
15095;DHT22;7648;52.264;9.632;2024-03-17T07:48:47;5.20;99.90
15095;DHT22;7648;52.264;9.632;2024-03-17T07:52:49;5.40;99.90
15095;DHT22;7648;52.264;9.632;2024-03-17T07:56:51;5.70;99.90
15095;DHT22;7648;52.264;9.632;2024-03-17T08:00:56;6.00;99.90
15095;DHT22;7648;52.264;9.632;2024-03-17T08:05:01;6.30;99.90
15095;DHT22;7648;52.264;9.632;2024-03-17T08:09:06;6.60;99.90
15095;DHT22;7648;52.264;9.632;2024-03-17T08:13:08;6.70;99.90
15095;DHT22;7648;52.264;9.632;2024-03-17T08:17:10;6.80;99.90
15095;DHT22;7648;52.264;9.632;2024-03-17T08:21:14;6.90;99.90
15095;DHT22;7648;52.264;9.632;2024-03-17T08:25:16;6.90;99.90
15095;DHT22;7648;52.264;9.632;2024-03-17T08:29:18;6.90;99.90
15095;DHT22;7648;52.264;9.632;2024-03-17T08:33:20;6.90;99.90
15095;DHT22;7648;52.264;9.632;2024-03-17T08:37:24;6.90;99.90
15095;DHT22;7648;52.264;9.632;2024-03-17T08:41:26;6.90;99.90
15095;DHT22;7648;52.264;9.632;2024-03-17T08:45:30;6.90;99.90
15095;DHT22;7648;52.264;9.632;2024-03-17T08:49:32;6.90;99.90
15095;DHT22;7648;52.264;9.632;2024-03-17T08:53:36;7.00;99.90
15095;DHT22;7648;52.264;9.632;2024-03-17T08:57:39;7.20;99.90
15095;DHT22;7648;52.264;9.632;2024-03-17T09:01:41;7.30;99.90
15095;DHT22;7648;52.264;9.632;2024-03-17T09:05:44;7.40;99.90
15095;DHT22;7648;52.264;9.632;2024-03-17T09:09:48;7.60;99.90
15095;DHT22;7648;52.264;9.632;2024-03-17T09:13:50;7.70;99.90
15095;DHT22;7648;52.264;9.632;2024-03-17T09:17:52;7.90;99.90
15095;DHT22;7648;52.264;9.632;2024-03-17T09:21:54;8.10;99.90
15095;DHT22;7648;52.264;9.632;2024-03-17T09:25:58;8.10;99.90
15095;DHT22;7648;52.264;9.632;2024-03-17T09:30:01;8.10;99.90
15095;DHT22;7648;52.264;9.632;2024-03-17T09:34:06;8.20;99.90
15095;DHT22;7648;52.264;9.632;2024-03-17T09:38:08;8.30;99.90
15095;DHT22;7648;52.264;9.632;2024-03-17T09:42:19;8.40;99.90
15095;DHT22;7648;52.264;9.632;2024-03-17T09:46:22;8.60;99.90
15095;DHT22;7648;52.264;9.632;2024-03-17T09:50:26;8.70;99.90
15095;DHT22;7648;52.264;9.632;2024-03-17T09:54:30;8.80;99.90
15095;DHT22;7648;52.264;9.632;2024-03-17T09:58:33;9.00;99.90
15095;DHT22;7648;52.264;9.632;2024-03-17T10:02:35;9.30;99.90
15095;DHT22;7648;52.264;9.632;2024-03-17T10:06:45;9.50;99.90
15095;DHT22;7648;52.264;9.632;2024-03-17T10:10:52;9.50;99.90
15095;DHT22;7648;52.264;9.632;2024-03-17T10:15:00;9.60;99.90
15095;DHT22;7648;52.264;9.632;2024-03-17T10:19:07;9.90;99.90
15095;DHT22;7648;52.264;9.632;2024-03-17T10:23:10;10.00;99.90
15095;DHT22;7648;52.264;9.632;2024-03-17T10:27:15;10.30;99.90
15095;DHT22;7648;52.264;9.632;2024-03-17T10:31:18;10.50;99.90
15095;DHT22;7648;52.264;9.632;2024-03-17T10:35:30;10.70;99.90
15095;DHT22;7648;52.264;9.632;2024-03-17T10:39:32;10.90;99.90
15095;DHT22;7648;52.264;9.632;2024-03-17T10:43:35;11.20;99.90
15095;DHT22;7648;52.264;9.632;2024-03-17T10:47:43;11.40;99.90
15095;DHT22;7648;52.264;9.632;2024-03-17T10:51:51;11.60;99.90
15095;DHT22;7648;52.264;9.632;2024-03-17T10:56:04;12.00;99.90
15095;DHT22;7648;52.264;9.632;2024-03-17T11:00:10;12.30;99.90
15095;DHT22;7648;52.264;9.632;2024-03-17T11:04:19;12.50;99.90
15095;DHT22;7648;52.264;9.632;2024-03-17T11:08:22;12.50;99.90
15095;DHT22;7648;52.264;9.632;2024-03-17T11:12:43;12.50;99.90
15095;DHT22;7648;52.264;9.632;2024-03-17T11:16:46;12.40;99.90
15095;DHT22;7648;52.264;9.632;2024-03-17T11:20:58;12.50;99.90
15095;DHT22;7648;52.264;9.632;2024-03-17T11:25:38;12.60;99.90
15095;DHT22;7648;52.264;9.632;2024-03-17T11:29:40;12.70;99.90
15095;DHT22;7648;52.264;9.632;2024-03-17T11:33:48;13.00;99.90
15095;DHT22;7648;52.264;9.632;2024-03-17T11:37:52;13.00;99.90
15095;DHT22;7648;52.264;9.632;2024-03-17T11:41:54;12.80;99.90
15095;DHT22;7648;52.264;9.632;2024-03-17T11:45:56;12.70;99.90
15095;DHT22;7648;52.264;9.632;2024-03-17T11:49:58;12.60;99.90
15095;DHT22;7648;52.264;9.632;2024-03-17T11:54:04;12.40;99.90
15095;DHT22;7648;52.264;9.632;2024-03-17T11:58:12;12.50;99.90
15095;DHT22;7648;52.264;9.632;2024-03-17T12:02:17;12.60;99.90
15095;DHT22;7648;52.264;9.632;2024-03-17T12:06:19;12.60;99.90
15095;DHT22;7648;52.264;9.632;2024-03-17T12:10:23;12.70;99.90
15095;DHT22;7648;52.264;9.632;2024-03-17T12:14:25;12.80;99.90
15095;DHT22;7648;52.264;9.632;2024-03-17T12:18:27;12.70;99.90
15095;DHT22;7648;52.264;9.632;2024-03-17T12:22:32;12.20;99.90
15095;DHT22;7648;52.264;9.632;2024-03-17T12:26:42;12.20;99.90
15095;DHT22;7648;52.264;9.632;2024-03-17T12:30:46;12.50;99.90
15095;DHT22;7648;52.264;9.632;2024-03-17T12:34:50;12.70;99.90
15095;DHT22;7648;52.264;9.632;2024-03-17T12:38:52;12.80;99.90
15095;DHT22;7648;52.264;9.632;2024-03-17T12:42:55;13.00;99.90
15095;DHT22;7648;52.264;9.632;2024-03-17T12:47:01;13.10;99.90
15095;DHT22;7648;52.264;9.632;2024-03-17T12:51:04;13.00;99.90
15095;DHT22;7648;52.264;9.632;2024-03-17T12:55:07;13.10;99.90
15095;DHT22;7648;52.264;9.632;2024-03-17T12:59:41;13.00;99.90
15095;DHT22;7648;52.264;9.632;2024-03-17T13:04:09;13.00;99.90
15095;DHT22;7648;52.264;9.632;2024-03-17T13:08:11;12.60;99.90
15095;DHT22;7648;52.264;9.632;2024-03-17T13:12:14;12.50;99.90
15095;DHT22;7648;52.264;9.632;2024-03-17T13:16:18;12.50;99.90
15095;DHT22;7648;52.264;9.632;2024-03-17T13:20:20;12.20;99.90
15095;DHT22;7648;52.264;9.632;2024-03-17T13:24:22;12.20;99.90
15095;DHT22;7648;52.264;9.632;2024-03-17T13:28:24;12.00;99.90
15095;DHT22;7648;52.264;9.632;2024-03-17T13:32:30;11.80;99.90
15095;DHT22;7648;52.264;9.632;2024-03-17T13:36:33;11.60;99.90
15095;DHT22;7648;52.264;9.632;2024-03-17T13:40:36;11.50;99.90
15095;DHT22;7648;52.264;9.632;2024-03-17T13:44:39;11.60;99.90
15095;DHT22;7648;52.264;9.632;2024-03-17T13:48:42;11.70;99.90
15095;DHT22;7648;52.264;9.632;2024-03-17T13:52:44;11.80;99.90
15095;DHT22;7648;52.264;9.632;2024-03-17T13:56:47;11.90;99.90
15095;DHT22;7648;52.264;9.632;2024-03-17T14:00:49;12.00;99.90
15095;DHT22;7648;52.264;9.632;2024-03-17T14:04:52;12.00;99.90
15095;DHT22;7648;52.264;9.632;2024-03-17T14:08:54;12.00;99.90
15095;DHT22;7648;52.264;9.632;2024-03-17T14:12:56;12.20;99.90
15095;DHT22;7648;52.264;9.632;2024-03-17T14:16:58;12.30;99.90
15095;DHT22;7648;52.264;9.632;2024-03-17T14:21:02;12.30;99.90
15095;DHT22;7648;52.264;9.632;2024-03-17T14:25:05;12.30;99.90
15095;DHT22;7648;52.264;9.632;2024-03-17T14:29:07;12.30;99.90
15095;DHT22;7648;52.264;9.632;2024-03-17T14:33:09;12.40;99.90
15095;DHT22;7648;52.264;9.632;2024-03-17T14:37:12;12.40;99.90
15095;DHT22;7648;52.264;9.632;2024-03-17T14:41:15;12.40;99.90
15095;DHT22;7648;52.264;9.632;2024-03-17T14:45:17;12.40;99.90
15095;DHT22;7648;52.264;9.632;2024-03-17T14:49:19;12.30;99.90
15095;DHT22;7648;52.264;9.632;2024-03-17T14:53:22;12.40;99.90
15095;DHT22;7648;52.264;9.632;2024-03-17T14:57:24;12.30;99.90
15095;DHT22;7648;52.264;9.632;2024-03-17T15:01:27;12.20;99.90
15095;DHT22;7648;52.264;9.632;2024-03-17T15:05:31;12.10;99.90
15095;DHT22;7648;52.264;9.632;2024-03-17T15:09:34;12.00;99.90
15095;DHT22;7648;52.264;9.632;2024-03-17T15:13:36;11.90;99.90
15095;DHT22;7648;52.264;9.632;2024-03-17T15:17:38;11.80;99.90
15095;DHT22;7648;52.264;9.632;2024-03-17T15:21:41;11.80;99.90
15095;DHT22;7648;52.264;9.632;2024-03-17T15:25:44;11.70;99.90
15095;DHT22;7648;52.264;9.632;2024-03-17T15:29:46;11.60;99.90
15095;DHT22;7648;52.264;9.632;2024-03-17T15:33:50;11.60;99.90
15095;DHT22;7648;52.264;9.632;2024-03-17T15:37:52;11.60;99.90
15095;DHT22;7648;52.264;9.632;2024-03-17T15:41:56;11.60;99.90
15095;DHT22;7648;52.264;9.632;2024-03-17T15:45:58;11.60;99.90
15095;DHT22;7648;52.264;9.632;2024-03-17T15:50:00;11.60;99.90
15095;DHT22;7648;52.264;9.632;2024-03-17T15:54:02;11.60;99.90
15095;DHT22;7648;52.264;9.632;2024-03-17T15:58:05;11.50;99.90
15095;DHT22;7648;52.264;9.632;2024-03-17T16:02:07;11.40;99.90
15095;DHT22;7648;52.264;9.632;2024-03-17T16:06:16;11.40;99.90
15095;DHT22;7648;52.264;9.632;2024-03-17T16:10:20;11.30;99.90
15095;DHT22;7648;52.264;9.632;2024-03-17T16:14:25;11.20;99.90
15095;DHT22;7648;52.264;9.632;2024-03-17T16:18:27;11.20;99.90
15095;DHT22;7648;52.264;9.632;2024-03-17T16:22:31;11.10;99.90
15095;DHT22;7648;52.264;9.632;2024-03-17T16:26:33;11.10;99.90
15095;DHT22;7648;52.264;9.632;2024-03-17T16:30:39;10.90;99.90
15095;DHT22;7648;52.264;9.632;2024-03-17T16:34:41;10.80;99.90
15095;DHT22;7648;52.264;9.632;2024-03-17T16:38:42;10.70;99.90
15095;DHT22;7648;52.264;9.632;2024-03-17T16:42:45;10.60;99.90
15095;DHT22;7648;52.264;9.632;2024-03-17T16:47:14;10.50;99.90
15095;DHT22;7648;52.264;9.632;2024-03-17T16:51:18;10.40;99.90
15095;DHT22;7648;52.264;9.632;2024-03-17T16:55:20;10.30;99.90
15095;DHT22;7648;52.264;9.632;2024-03-17T16:59:23;10.20;99.90
15095;DHT22;7648;52.264;9.632;2024-03-17T17:03:27;10.10;99.90
15095;DHT22;7648;52.264;9.632;2024-03-17T17:07:29;10.00;99.90
15095;DHT22;7648;52.264;9.632;2024-03-17T17:11:33;9.90;99.90
15095;DHT22;7648;52.264;9.632;2024-03-17T17:15:35;9.80;99.90
15095;DHT22;7648;52.264;9.632;2024-03-17T17:19:39;9.70;99.90
15095;DHT22;7648;52.264;9.632;2024-03-17T17:23:41;9.60;99.90
15095;DHT22;7648;52.264;9.632;2024-03-17T17:27:43;9.60;99.90
15095;DHT22;7648;52.264;9.632;2024-03-17T17:31:45;9.40;99.90
15095;DHT22;7648;52.264;9.632;2024-03-17T17:35:49;9.40;99.90
15095;DHT22;7648;52.264;9.632;2024-03-17T17:39:50;9.30;99.90
15095;DHT22;7648;52.264;9.632;2024-03-17T17:43:53;9.30;99.90
15095;DHT22;7648;52.264;9.632;2024-03-17T17:47:55;9.20;99.90
15095;DHT22;7648;52.264;9.632;2024-03-17T17:51:58;9.10;99.90
15095;DHT22;7648;52.264;9.632;2024-03-17T17:56:03;9.10;99.90
15095;DHT22;7648;52.264;9.632;2024-03-17T18:00:07;9.00;99.90
15095;DHT22;7648;52.264;9.632;2024-03-17T18:04:11;9.00;99.90
15095;DHT22;7648;52.264;9.632;2024-03-17T18:08:14;8.90;99.90
15095;DHT22;7648;52.264;9.632;2024-03-17T18:12:17;8.80;99.90
15095;DHT22;7648;52.264;9.632;2024-03-17T18:16:19;8.80;99.90
15095;DHT22;7648;52.264;9.632;2024-03-17T18:20:22;8.70;99.90
15095;DHT22;7648;52.264;9.632;2024-03-17T18:24:26;8.70;99.90
15095;DHT22;7648;52.264;9.632;2024-03-17T18:28:28;8.60;99.90
15095;DHT22;7648;52.264;9.632;2024-03-17T18:32:30;8.60;99.90
15095;DHT22;7648;52.264;9.632;2024-03-17T18:36:32;8.60;99.90
15095;DHT22;7648;52.264;9.632;2024-03-17T18:40:36;8.60;99.90
15095;DHT22;7648;52.264;9.632;2024-03-17T18:44:38;8.50;99.90
15095;DHT22;7648;52.264;9.632;2024-03-17T18:48:42;8.50;99.90
15095;DHT22;7648;52.264;9.632;2024-03-17T18:52:44;8.50;99.90
15095;DHT22;7648;52.264;9.632;2024-03-17T18:56:47;8.40;99.90
15095;DHT22;7648;52.264;9.632;2024-03-17T19:00:52;8.40;99.90
15095;DHT22;7648;52.264;9.632;2024-03-17T19:04:54;8.40;99.90
15095;DHT22;7648;52.264;9.632;2024-03-17T19:08:56;8.30;99.90
15095;DHT22;7648;52.264;9.632;2024-03-17T19:12:59;8.30;99.90
15095;DHT22;7648;52.264;9.632;2024-03-17T19:17:03;8.30;99.90
15095;DHT22;7648;52.264;9.632;2024-03-17T19:21:07;8.30;99.90
15095;DHT22;7648;52.264;9.632;2024-03-17T19:25:10;8.30;99.90
15095;DHT22;7648;52.264;9.632;2024-03-17T19:29:14;8.20;99.90
15095;DHT22;7648;52.264;9.632;2024-03-17T19:33:16;8.20;99.90
15095;DHT22;7648;52.264;9.632;2024-03-17T19:37:18;8.20;99.90
15095;DHT22;7648;52.264;9.632;2024-03-17T19:41:21;8.20;99.90
15095;DHT22;7648;52.264;9.632;2024-03-17T19:45:25;8.20;99.90
15095;DHT22;7648;52.264;9.632;2024-03-17T19:49:27;8.20;99.90
15095;DHT22;7648;52.264;9.632;2024-03-17T19:53:29;8.10;99.90
15095;DHT22;7648;52.264;9.632;2024-03-17T19:57:31;8.10;99.90
15095;DHT22;7648;52.264;9.632;2024-03-17T20:01:34;8.10;99.90
15095;DHT22;7648;52.264;9.632;2024-03-17T20:05:36;8.10;99.90
15095;DHT22;7648;52.264;9.632;2024-03-17T20:09:39;8.10;99.90
15095;DHT22;7648;52.264;9.632;2024-03-17T20:13:41;8.00;99.90
15095;DHT22;7648;52.264;9.632;2024-03-17T20:17:45;8.00;99.90
15095;DHT22;7648;52.264;9.632;2024-03-17T20:21:47;8.00;99.90
15095;DHT22;7648;52.264;9.632;2024-03-17T20:25:48;8.00;99.90
15095;DHT22;7648;52.264;9.632;2024-03-17T20:29:51;8.00;99.90
15095;DHT22;7648;52.264;9.632;2024-03-17T20:33:54;7.90;99.90
15095;DHT22;7648;52.264;9.632;2024-03-17T20:37:56;7.90;99.90
15095;DHT22;7648;52.264;9.632;2024-03-17T20:41:59;7.90;99.90
15095;DHT22;7648;52.264;9.632;2024-03-17T20:46:02;7.90;99.90
15095;DHT22;7648;52.264;9.632;2024-03-17T20:50:08;7.90;99.90
15095;DHT22;7648;52.264;9.632;2024-03-17T20:54:10;7.80;99.90
15095;DHT22;7648;52.264;9.632;2024-03-17T20:58:12;7.80;99.90
15095;DHT22;7648;52.264;9.632;2024-03-17T21:02:14;7.80;99.90
15095;DHT22;7648;52.264;9.632;2024-03-17T21:06:17;7.70;99.90
15095;DHT22;7648;52.264;9.632;2024-03-17T21:10:20;7.80;99.90
15095;DHT22;7648;52.264;9.632;2024-03-17T21:14:22;7.70;99.90
15095;DHT22;7648;52.264;9.632;2024-03-17T21:18:24;7.70;99.90
15095;DHT22;7648;52.264;9.632;2024-03-17T21:22:28;7.70;99.90
15095;DHT22;7648;52.264;9.632;2024-03-17T21:26:29;7.70;99.90
15095;DHT22;7648;52.264;9.632;2024-03-17T21:30:31;7.60;99.90
15095;DHT22;7648;52.264;9.632;2024-03-17T21:34:33;7.60;99.90
15095;DHT22;7648;52.264;9.632;2024-03-17T21:38:37;7.50;99.90
15095;DHT22;7648;52.264;9.632;2024-03-17T21:42:39;7.50;99.90
15095;DHT22;7648;52.264;9.632;2024-03-17T21:46:41;7.40;99.90
15095;DHT22;7648;52.264;9.632;2024-03-17T21:50:43;7.40;99.90
15095;DHT22;7648;52.264;9.632;2024-03-17T21:54:47;7.30;99.90
15095;DHT22;7648;52.264;9.632;2024-03-17T21:58:49;7.30;99.90
15095;DHT22;7648;52.264;9.632;2024-03-17T22:02:50;7.30;99.90
15095;DHT22;7648;52.264;9.632;2024-03-17T22:06:52;7.20;99.90
15095;DHT22;7648;52.264;9.632;2024-03-17T22:10:58;7.20;99.90
15095;DHT22;7648;52.264;9.632;2024-03-17T22:15:00;7.10;99.90
15095;DHT22;7648;52.264;9.632;2024-03-17T22:19:04;7.10;99.90
15095;DHT22;7648;52.264;9.632;2024-03-17T22:23:07;7.10;99.90
15095;DHT22;7648;52.264;9.632;2024-03-17T22:27:10;7.10;99.90
15095;DHT22;7648;52.264;9.632;2024-03-17T22:31:12;7.00;99.90
15095;DHT22;7648;52.264;9.632;2024-03-17T22:35:14;7.00;99.90
15095;DHT22;7648;52.264;9.632;2024-03-17T22:39:16;7.00;99.90
15095;DHT22;7648;52.264;9.632;2024-03-17T22:43:19;6.90;99.90
15095;DHT22;7648;52.264;9.632;2024-03-17T22:47:23;6.90;99.90
15095;DHT22;7648;52.264;9.632;2024-03-17T22:51:29;6.80;99.90
15095;DHT22;7648;52.264;9.632;2024-03-17T22:55:31;6.90;99.90
15095;DHT22;7648;52.264;9.632;2024-03-17T22:59:34;6.80;99.90
15095;DHT22;7648;52.264;9.632;2024-03-17T23:03:37;6.70;99.90
15095;DHT22;7648;52.264;9.632;2024-03-17T23:07:39;6.70;99.90
15095;DHT22;7648;52.264;9.632;2024-03-17T23:11:41;6.70;99.90
15095;DHT22;7648;52.264;9.632;2024-03-17T23:15:45;6.60;99.90
15095;DHT22;7648;52.264;9.632;2024-03-17T23:19:47;6.60;99.90
15095;DHT22;7648;52.264;9.632;2024-03-17T23:23:49;6.60;99.90
15095;DHT22;7648;52.264;9.632;2024-03-17T23:27:51;6.50;99.90
15095;DHT22;7648;52.264;9.632;2024-03-17T23:31:54;6.50;99.90
15095;DHT22;7648;52.264;9.632;2024-03-17T23:35:56;6.50;99.90
15095;DHT22;7648;52.264;9.632;2024-03-17T23:40:00;6.40;99.90
15095;DHT22;7648;52.264;9.632;2024-03-17T23:44:02;6.40;99.90
15095;DHT22;7648;52.264;9.632;2024-03-17T23:48:06;6.40;99.90
15095;DHT22;7648;52.264;9.632;2024-03-17T23:52:08;6.30;99.90
15095;DHT22;7648;52.264;9.632;2024-03-17T23:56:10;6.30;99.90
